createdAt,value
2018-01-25T20:55:37.371Z,40.96
2018-01-25T20:58:23.186Z,43.33
2018-01-25T21:00:51.938Z,45.75
2018-01-25T21:03:20.556Z,48.41
2018-01-25T21:05:49.235Z,48.77
2018-01-25T21:08:18.451Z,49.98
2018-01-25T21:10:47.375Z,52.04
2018-01-25T21:13:16.323Z,52.55
2018-01-25T21:15:45.328Z,54.40
2018-01-25T21:18:14.365Z,53.69
2018-01-25T21:20:43.091Z,55.81
2018-01-25T21:23:12.196Z,55.91
2018-01-25T21:25:41.316Z,56.25
2018-01-25T21:28:10.415Z,56.59
2018-01-25T21:30:39.406Z,56.58
2018-01-25T21:33:08.337Z,57.02
2018-01-25T21:35:36.964Z,58.77
2018-01-25T21:38:06.235Z,57.38
2018-01-25T21:40:35.176Z,57.55
2018-01-25T21:43:04.119Z,58.27
2018-01-25T21:45:33.111Z,58.91
2018-01-25T21:48:02.071Z,58.84
2018-01-25T21:50:31.009Z,58.94
2018-01-25T21:53:00.057Z,59.39
2018-01-25T21:55:29.016Z,59.73
2018-01-25T21:57:58.014Z,59.80
2018-01-25T22:00:27.017Z,59.64
2018-01-25T22:02:55.960Z,60.45
2018-01-25T22:05:25.391Z,61.19
2018-01-25T22:07:54.427Z,60.18
2018-01-25T22:10:23.376Z,61.02
2018-01-25T22:12:52.153Z,61.50
2018-01-25T22:15:21.168Z,61.19
2018-01-25T22:17:50.378Z,61.61
2018-01-25T22:20:19.501Z,61.04
2018-01-25T22:22:48.219Z,61.24
2018-01-25T22:25:16.866Z,61.66
2018-01-25T22:27:45.807Z,61.63
2018-01-25T22:30:14.789Z,62.90
2018-01-25T22:32:43.695Z,63.14
2018-01-25T22:35:12.668Z,63.18
2018-01-25T22:37:41.655Z,63.32
2018-01-25T22:40:10.644Z,62.46
2018-01-25T22:42:39.542Z,62.88
2018-01-25T22:45:08.342Z,63.35
2018-01-25T22:47:37.349Z,63.02
2018-01-25T22:50:06.278Z,63.52
2018-01-25T22:52:35.270Z,64.10
2018-01-25T22:55:04.003Z,63.73
2018-01-25T22:57:32.839Z,64.59
2018-01-25T23:00:01.823Z,65.77
2018-01-25T23:02:32.390Z,65.61
2018-01-25T23:05:02.276Z,65.12
2018-01-25T23:07:31.200Z,65.19
2018-01-25T23:09:59.898Z,64.26
2018-01-25T23:12:28.882Z,63.64
2018-01-25T23:14:57.535Z,63.42
2018-01-25T23:17:26.740Z,64.30
2018-01-25T23:19:55.925Z,65.07
2018-01-25T23:22:24.719Z,64.55
2018-01-25T23:24:55.163Z,65.12
2018-01-25T23:27:25.857Z,65.57
2018-01-25T23:29:54.513Z,66.29
2018-01-25T23:32:23.752Z,66.26
2018-01-25T23:34:53.231Z,66.37
2018-01-25T23:37:23.926Z,66.12
2018-01-25T23:41:24.727Z,67.32
2018-01-25T23:43:55.622Z,66.17
2018-01-25T23:46:24.512Z,65.83
2018-01-25T23:48:53.178Z,65.63
2018-01-25T23:51:22.188Z,65.68
2018-01-25T23:53:51.187Z,65.63
2018-01-25T23:56:20.212Z,65.93
2018-01-25T23:58:49.561Z,65.97
